createdAt,value
2019-03-06T00:01:17.769Z,16.13
2019-03-06T00:03:45.562Z,16.15
2019-03-06T00:06:16.634Z,16.04
2019-03-06T00:15:48.119Z,15.27
2019-03-06T00:19:10.784Z,15.99
2019-03-06T00:31:08.678Z,15.95
2019-03-06T00:33:53.214Z,15.93
2019-03-06T00:36:52.917Z,15.96
2019-03-06T00:39:20.921Z,15.92
2019-03-06T00:41:51.249Z,15.77
2019-03-06T00:44:19.021Z,15.90
2019-03-06T00:46:46.940Z,15.83
2019-03-06T00:49:14.723Z,15.84
2019-03-06T00:51:42.447Z,15.77
2019-03-06T00:54:10.358Z,15.76
2019-03-06T00:56:38.067Z,15.75
2019-03-06T00:59:05.774Z,15.75
2019-03-06T01:01:36.620Z,15.76
2019-03-06T01:04:07.864Z,15.73
2019-03-06T01:06:35.591Z,15.76
2019-03-06T01:09:03.863Z,15.76
2019-03-06T01:11:31.571Z,15.75
2019-03-06T01:13:59.281Z,15.73
2019-03-06T01:16:26.997Z,15.73
2019-03-06T01:18:55.039Z,15.72
2019-03-06T01:21:22.785Z,15.71
2019-03-06T01:23:50.575Z,15.69
2019-03-06T01:26:18.314Z,15.66
2019-03-06T01:28:46.031Z,15.65
2019-03-06T01:31:13.750Z,15.63
2019-03-06T01:33:46.727Z,15.55
2019-03-06T01:36:36.645Z,15.57
2019-03-06T01:39:39.654Z,15.59
2019-03-06T01:42:20.329Z,15.56
2019-03-06T01:45:02.087Z,15.53
2019-03-06T01:47:32.972Z,15.55
2019-03-06T01:50:00.796Z,15.56
2019-03-06T01:52:28.647Z,15.55
2019-03-06T01:54:56.586Z,15.53
2019-03-06T01:57:24.495Z,15.47
2019-03-06T01:59:52.667Z,15.48
2019-03-06T02:02:20.407Z,15.50
2019-03-06T02:04:48.174Z,15.51
2019-03-06T02:07:15.887Z,15.51
2019-03-06T02:09:43.659Z,15.46
2019-03-06T02:12:11.432Z,15.48
2019-03-06T02:14:39.167Z,15.45
2019-03-06T02:17:06.930Z,15.43
2019-03-06T02:19:46.600Z,15.44
2019-03-06T02:22:14.334Z,15.45
2019-03-06T02:24:42.094Z,15.43
2019-03-06T02:27:09.820Z,15.42
2019-03-06T02:29:37.548Z,15.40
2019-03-06T02:32:05.282Z,15.41
2019-03-06T02:34:33.129Z,15.41
2019-03-06T02:37:01.093Z,15.45
2019-03-06T02:39:28.828Z,15.45
2019-03-06T02:41:56.576Z,15.41
2019-03-06T02:44:24.322Z,15.41
2019-03-06T02:46:52.083Z,15.33
2019-03-06T02:49:19.879Z,15.40
2019-03-06T02:51:47.734Z,15.46
2019-03-06T02:54:15.527Z,15.47
2019-03-06T02:56:43.308Z,15.46
2019-03-06T02:59:30.215Z,15.42
2019-03-06T03:02:13.121Z,15.50
2019-03-06T03:05:02.981Z,15.46
2019-03-06T03:07:30.865Z,15.47
2019-03-06T03:10:09.136Z,15.46
2019-03-06T03:12:37.088Z,15.50
2019-03-06T03:15:04.997Z,15.44
2019-03-06T03:17:32.978Z,15.45
2019-03-06T03:20:00.730Z,15.54
2019-03-06T03:22:28.738Z,15.54
2019-03-06T03:24:56.476Z,15.52
2019-03-06T03:27:27.403Z,15.51
2019-03-06T03:29:55.454Z,15.48
2019-03-06T03:32:23.202Z,15.55
2019-03-06T03:34:51.322Z,15.63
2019-03-06T03:37:19.052Z,15.59
2019-03-06T03:39:47.084Z,15.61
2019-03-06T03:42:15.047Z,15.56
2019-03-06T03:44:43.179Z,15.60
2019-03-06T03:47:23.260Z,15.57
2019-03-06T03:49:51.465Z,15.59
2019-03-06T03:52:19.227Z,15.57
2019-03-06T03:54:47.023Z,15.56
2019-03-06T03:57:15.060Z,15.55
2019-03-06T03:59:42.856Z,15.50
2019-03-06T04:02:10.672Z,15.45
2019-03-06T04:04:38.397Z,15.40
2019-03-06T04:07:06.194Z,15.48
2019-03-06T04:09:34.021Z,15.36
2019-03-06T04:12:01.842Z,15.41
2019-03-06T04:14:29.602Z,15.39
2019-03-06T04:16:57.514Z,15.37
2019-03-06T04:19:25.393Z,15.35
2019-03-06T04:21:53.299Z,15.32
2019-03-06T04:24:21.156Z,15.36
2019-03-06T04:27:21.746Z,15.34
2019-03-06T04:29:59.357Z,15.32
2019-03-06T04:35:37.859Z,15.32
2019-03-06T04:54:03.727Z,15.28
2019-03-06T04:56:31.513Z,15.32
2019-03-06T04:58:59.245Z,15.20
2019-03-06T05:01:27.043Z,15.22
2019-03-06T05:03:54.847Z,15.32
2019-03-06T05:06:22.615Z,15.23
2019-03-06T05:08:59.281Z,15.28
2019-03-06T05:11:27.166Z,15.37
2019-03-06T05:13:55.004Z,15.32
2019-03-06T05:16:30.568Z,15.29
2019-03-06T05:19:01.875Z,15.19
2019-03-06T05:21:29.648Z,15.25
2019-03-06T05:23:57.560Z,15.19
2019-03-06T05:26:25.430Z,15.18
2019-03-06T05:28:53.581Z,15.23
2019-03-06T05:31:21.435Z,15.22
2019-03-06T05:33:49.259Z,15.21
2019-03-06T05:36:34.111Z,14.55
2019-03-06T05:39:06.351Z,15.27
2019-03-06T05:41:34.352Z,15.24
2019-03-06T05:44:04.207Z,15.21
2019-03-06T05:46:31.946Z,15.12
2019-03-06T05:48:59.772Z,15.13
2019-03-06T05:51:27.483Z,15.23
2019-03-06T05:53:55.215Z,15.26
2019-03-06T05:56:23.011Z,15.26
2019-03-06T05:59:13.113Z,15.23
2019-03-06T06:01:20.212Z,15.28
2019-03-06T06:03:48.204Z,15.17
2019-03-06T06:06:16.074Z,15.23
2019-03-06T06:08:43.854Z,15.24
2019-03-06T06:11:11.632Z,15.21
2019-03-06T06:13:39.417Z,15.14
2019-03-06T06:16:07.332Z,15.25
2019-03-06T06:18:35.208Z,15.17
2019-03-06T06:21:31.937Z,15.16
2019-03-06T06:24:02.967Z,15.04
2019-03-06T06:26:32.185Z,15.16
2019-03-06T06:28:59.955Z,15.12
2019-03-06T06:31:27.885Z,15.04
2019-03-06T06:33:55.790Z,15.10
2019-03-06T06:36:23.704Z,15.09
2019-03-06T06:38:57.306Z,15.13
2019-03-06T06:41:25.147Z,15.16
2019-03-06T06:43:52.924Z,15.10
2019-03-06T06:46:21.256Z,15.14
2019-03-06T06:48:49.457Z,15.06
2019-03-06T06:51:39.551Z,15.13
2019-03-06T06:54:13.345Z,15.12
2019-03-06T06:57:00.474Z,15.02
2019-03-06T06:59:33.858Z,15.11
2019-03-06T07:02:28.174Z,15.09
2019-03-06T07:05:20.423Z,15.01
2019-03-06T07:08:25.289Z,15.13
2019-03-06T07:11:04.379Z,14.98
2019-03-06T07:13:47.663Z,15.02
2019-03-06T07:16:46.642Z,14.95
2019-03-06T07:19:33.880Z,14.98
2019-03-06T07:22:13.352Z,14.99
2019-03-06T07:24:55.912Z,14.93
2019-03-06T07:27:46.006Z,14.99
2019-03-06T07:30:39.058Z,14.95
2019-03-06T07:33:13.578Z,15.01
2019-03-06T07:36:19.660Z,14.93
2019-03-06T07:38:48.429Z,15.00
2019-03-06T07:41:34.507Z,14.99
2019-03-06T07:44:15.377Z,14.95
2019-03-06T07:47:00.957Z,14.99
2019-03-06T07:49:44.460Z,14.98
2019-03-06T07:52:27.931Z,14.98
2019-03-06T07:55:07.478Z,15.02
2019-03-06T07:57:53.440Z,15.03
2019-03-06T08:00:21.681Z,15.01
2019-03-06T08:03:18.409Z,15.01
2019-03-06T08:05:46.368Z,14.99
2019-03-06T08:08:14.807Z,14.99
2019-03-06T08:10:42.678Z,14.97
2019-03-06T08:13:26.366Z,15.03
2019-03-06T08:16:12.382Z,14.89
2019-03-06T08:18:52.798Z,14.94
2019-03-06T08:21:42.444Z,14.97
2019-03-06T08:24:28.127Z,14.90
2019-03-06T08:26:56.745Z,14.85
2019-03-06T08:29:24.505Z,14.92
2019-03-06T08:32:01.589Z,14.91
2019-03-06T08:34:29.868Z,14.92
2019-03-06T08:36:57.662Z,14.97
2019-03-06T08:39:25.541Z,14.90
2019-03-06T08:41:53.405Z,14.95
2019-03-06T08:44:22.184Z,14.93
2019-03-06T08:47:05.024Z,14.92
2019-03-06T08:49:44.437Z,14.90
2019-03-06T08:52:26.308Z,14.80
2019-03-06T08:55:13.201Z,14.91
2019-03-06T08:58:18.327Z,14.94
2019-03-06T09:01:14.530Z,14.97
2019-03-06T09:03:58.027Z,14.91
2019-03-06T09:06:47.457Z,15.00
2019-03-06T09:09:46.773Z,14.92
2019-03-06T09:12:23.817Z,14.79
2019-03-06T09:15:09.509Z,14.90
2019-03-06T09:17:47.060Z,14.96
2019-03-06T09:20:38.198Z,14.97
2019-03-06T09:26:40.218Z,14.97
2019-03-06T09:29:21.149Z,14.99
2019-03-06T09:32:10.949Z,14.95
2019-03-06T09:34:47.411Z,14.94
2019-03-06T09:37:40.338Z,14.93
2019-03-06T09:40:20.876Z,14.90
2019-03-06T09:43:01.828Z,15.01
2019-03-06T09:45:41.546Z,14.94
2019-03-06T09:48:29.788Z,14.96
2019-03-06T09:51:19.610Z,14.89
2019-03-06T09:53:58.130Z,14.98
2019-03-06T09:56:54.128Z,15.03
2019-03-06T09:59:32.941Z,15.02
2019-03-06T10:02:32.108Z,15.03
2019-03-06T10:05:16.975Z,15.01
2019-03-06T10:08:03.945Z,15.01
2019-03-06T10:10:47.726Z,15.04
2019-03-06T10:13:42.245Z,15.11
2019-03-06T10:16:20.960Z,15.10
2019-03-06T10:18:56.440Z,15.08
2019-03-06T10:22:02.328Z,15.07
2019-03-06T10:24:30.506Z,15.00
2019-03-06T10:26:59.642Z,14.95
2019-03-06T10:29:28.758Z,15.05
2019-03-06T10:31:57.741Z,15.13
2019-03-06T10:34:25.866Z,15.03
2019-03-06T10:36:53.889Z,14.97
2019-03-06T10:39:31.589Z,14.89
2019-03-06T10:41:59.986Z,14.98
2019-03-06T10:44:29.839Z,15.04
2019-03-06T10:46:58.133Z,14.99
2019-03-06T10:49:28.225Z,15.10
2019-03-06T10:51:56.446Z,15.13
2019-03-06T10:54:24.280Z,15.11
2019-03-06T10:56:52.936Z,15.20
2019-03-06T10:59:21.100Z,14.98
2019-03-06T11:01:49.383Z,15.05
2019-03-06T11:04:40.803Z,15.05
2019-03-06T11:07:08.785Z,14.91
2019-03-06T11:09:38.115Z,15.19
2019-03-06T11:12:06.658Z,15.10
2019-03-06T11:14:35.169Z,15.06
2019-03-06T11:17:03.000Z,15.06
2019-03-06T11:19:31.599Z,15.18
2019-03-06T11:21:59.445Z,15.16
2019-03-06T11:24:27.371Z,15.15
2019-03-06T11:26:55.453Z,15.14
2019-03-06T11:29:23.505Z,15.16
2019-03-06T11:31:51.407Z,15.13
2019-03-06T11:34:19.360Z,15.12
2019-03-06T11:36:47.952Z,15.28
2019-03-06T11:39:16.158Z,15.26
2019-03-06T11:41:44.137Z,15.26
2019-03-06T11:44:12.049Z,15.23
2019-03-06T11:46:40.973Z,15.29
2019-03-06T11:49:09.877Z,15.28
2019-03-06T11:51:41.506Z,15.18
2019-03-06T11:54:10.068Z,15.25
2019-03-06T11:56:37.928Z,15.31
2019-03-06T11:59:05.981Z,15.38
2019-03-06T12:01:35.380Z,15.36
2019-03-06T12:04:03.327Z,15.36
2019-03-06T12:06:31.258Z,15.39
2019-03-06T12:08:59.328Z,15.41
2019-03-06T12:11:28.025Z,15.39
2019-03-06T12:13:55.956Z,15.42
2019-03-06T12:16:23.815Z,15.42
2019-03-06T12:18:51.662Z,15.47
2019-03-06T12:21:19.520Z,15.46
2019-03-06T12:23:47.406Z,15.45
2019-03-06T12:26:15.255Z,15.59
2019-03-06T12:28:43.336Z,15.52
2019-03-06T12:31:11.164Z,15.51
2019-03-06T12:33:39.117Z,15.53
2019-03-06T12:36:07.208Z,15.50
2019-03-06T12:38:35.093Z,15.50
2019-03-06T12:41:02.919Z,15.47
2019-03-06T12:43:33.267Z,15.45
2019-03-06T12:46:27.112Z,15.49
2019-03-06T12:48:58.908Z,15.55
2019-03-06T12:51:27.089Z,15.62
2019-03-06T12:53:55.225Z,15.63
2019-03-06T12:56:30.841Z,15.61
2019-03-06T12:59:00.170Z,15.61
2019-03-06T13:01:28.000Z,15.61
2019-03-06T13:03:56.375Z,15.61
2019-03-06T13:06:25.090Z,15.59
2019-03-06T13:08:53.339Z,15.65
2019-03-06T13:11:21.176Z,15.69
2019-03-06T13:13:49.357Z,15.63
2019-03-06T13:16:17.829Z,15.62
2019-03-06T13:18:47.165Z,15.76
2019-03-06T13:21:15.866Z,15.77
2019-03-06T13:23:43.742Z,15.78
2019-03-06T13:26:11.798Z,15.77
2019-03-06T13:28:39.653Z,15.84
2019-03-06T13:31:07.897Z,15.73
2019-03-06T13:33:43.534Z,15.87
2019-03-06T13:36:12.395Z,15.76
2019-03-06T13:38:40.356Z,15.77
2019-03-06T13:41:08.325Z,15.70
2019-03-06T13:43:36.313Z,15.71
2019-03-06T13:46:04.487Z,15.76
2019-03-06T13:48:32.306Z,15.73
2019-03-06T13:51:00.136Z,15.85
2019-03-06T13:53:28.131Z,15.74
2019-03-06T13:55:55.965Z,15.68
2019-03-06T13:58:23.792Z,15.62
2019-03-06T14:00:51.540Z,15.72
2019-03-06T14:03:19.389Z,15.78
2019-03-06T14:05:47.235Z,15.87
2019-03-06T14:08:15.296Z,15.88
2019-03-06T14:10:43.114Z,15.76
2019-03-06T14:13:10.940Z,15.87
2019-03-06T14:15:38.765Z,15.75
2019-03-06T14:18:06.625Z,15.70
2019-03-06T14:20:34.732Z,15.71
2019-03-06T14:23:02.581Z,15.67
2019-03-06T14:25:30.531Z,15.87
2019-03-06T14:27:58.652Z,15.82
2019-03-06T14:30:26.569Z,15.79
2019-03-06T14:32:55.608Z,15.75
2019-03-06T14:35:24.506Z,15.71
2019-03-06T14:37:52.388Z,15.62
2019-03-06T14:40:22.459Z,15.74
2019-03-06T14:42:50.394Z,15.60
2019-03-06T14:45:24.645Z,15.76
2019-03-06T14:47:52.749Z,16.07
2019-03-06T14:50:20.577Z,16.09
2019-03-06T14:52:48.678Z,15.88
2019-03-06T14:55:16.812Z,15.83
2019-03-06T14:57:44.640Z,15.78
2019-03-06T15:00:13.758Z,15.84
2019-03-06T15:02:42.367Z,15.94
2019-03-06T15:05:10.372Z,15.79
2019-03-06T15:07:38.165Z,15.89
2019-03-06T15:10:07.298Z,15.81
2019-03-06T15:12:35.243Z,15.86
2019-03-06T15:15:03.183Z,15.92
2019-03-06T15:17:31.081Z,15.83
2019-03-06T15:19:58.956Z,15.88
2019-03-06T15:22:26.897Z,16.03
2019-03-06T15:24:54.812Z,15.84
2019-03-06T15:27:22.885Z,15.86
2019-03-06T15:29:50.751Z,15.86
2019-03-06T15:32:18.701Z,15.89
2019-03-06T15:34:46.749Z,15.76
2019-03-06T15:37:14.652Z,15.82
2019-03-06T15:39:48.359Z,15.80
2019-03-06T15:42:14.699Z,15.79
2019-03-06T15:44:42.662Z,15.83
2019-03-06T15:47:11.645Z,15.86
2019-03-06T15:49:45.873Z,15.86
2019-03-06T15:52:13.724Z,15.91
2019-03-06T15:54:41.640Z,15.79
2019-03-06T15:57:10.190Z,15.87
2019-03-06T15:59:38.862Z,15.76
2019-03-06T16:02:06.846Z,15.79
2019-03-06T16:04:34.700Z,15.90
2019-03-06T16:07:03.868Z,15.78
2019-03-06T16:09:32.175Z,15.83
2019-03-06T16:12:00.731Z,15.79
2019-03-06T16:14:28.781Z,15.86
2019-03-06T16:16:58.626Z,15.86
2019-03-06T16:19:26.989Z,15.85
2019-03-06T16:21:54.871Z,15.89
2019-03-06T16:24:23.159Z,15.89
2019-03-06T16:26:50.974Z,15.88
2019-03-06T16:29:19.053Z,15.87
2019-03-06T16:31:47.084Z,15.85
2019-03-06T16:34:15.177Z,15.92
2019-03-06T16:36:43.031Z,15.94
2019-03-06T16:39:10.980Z,15.92
2019-03-06T16:41:39.126Z,15.85
2019-03-06T16:44:07.109Z,15.73
2019-03-06T16:46:35.076Z,15.87
2019-03-06T16:49:03.040Z,15.85
2019-03-06T16:51:31.043Z,15.93
2019-03-06T16:53:59.497Z,15.91
2019-03-06T16:56:27.648Z,15.96
2019-03-06T16:58:56.315Z,15.96
2019-03-06T17:01:24.202Z,15.90
2019-03-06T17:03:52.463Z,15.97
2019-03-06T17:06:20.810Z,15.98
2019-03-06T17:08:48.734Z,15.81
2019-03-06T17:11:16.900Z,15.93
2019-03-06T17:13:45.351Z,15.96
2019-03-06T17:16:13.601Z,15.91
2019-03-06T17:18:41.525Z,15.86
2019-03-06T17:21:09.396Z,15.93
2019-03-06T17:23:37.423Z,15.95
2019-03-06T17:26:05.241Z,16.01
2019-03-06T17:28:33.713Z,16.05
2019-03-06T17:31:02.786Z,15.94
2019-03-06T17:33:30.851Z,15.91
2019-03-06T17:35:59.013Z,16.02
2019-03-06T17:38:26.844Z,15.96
2019-03-06T17:40:54.680Z,15.88
2019-03-06T17:43:24.624Z,16.05
2019-03-06T17:45:52.980Z,15.91
2019-03-06T17:48:21.255Z,16.02
2019-03-06T17:50:49.054Z,16.07
2019-03-06T17:53:17.240Z,16.05
2019-03-06T17:55:45.192Z,16.01
2019-03-06T17:58:13.394Z,15.96
2019-03-06T18:00:46.932Z,15.98
2019-03-06T18:03:17.558Z,15.96
2019-03-06T18:05:45.937Z,16.00
2019-03-06T18:08:13.793Z,16.03
2019-03-06T18:10:41.903Z,16.07
2019-03-06T18:13:10.129Z,15.99
2019-03-06T18:15:38.321Z,16.07
2019-03-06T18:18:06.152Z,16.14
2019-03-06T18:20:34.072Z,16.08
2019-03-06T18:23:02.120Z,16.11
2019-03-06T18:25:30.072Z,16.15
2019-03-06T18:27:58.352Z,16.11
2019-03-06T18:30:26.465Z,16.02
2019-03-06T18:32:54.312Z,16.13
2019-03-06T18:35:22.269Z,16.15
2019-03-06T18:37:50.289Z,16.00
2019-03-06T18:40:18.344Z,16.14
2019-03-06T18:42:46.454Z,16.04
2019-03-06T18:45:15.831Z,16.19
2019-03-06T18:47:43.885Z,16.14
2019-03-06T18:50:12.477Z,16.15
2019-03-06T18:52:40.643Z,16.05
2019-03-06T18:55:08.566Z,16.21
2019-03-06T18:57:36.416Z,16.17
2019-03-06T19:00:04.641Z,16.13
2019-03-06T19:02:32.715Z,16.11
2019-03-06T19:05:00.653Z,16.16
2019-03-06T19:07:28.423Z,16.13
2019-03-06T19:09:56.282Z,16.18
2019-03-06T19:12:24.255Z,16.17
2019-03-06T19:14:52.113Z,16.16
2019-03-06T19:20:42.380Z,16.13
2019-03-06T19:23:10.419Z,16.12
2019-03-06T19:25:38.282Z,16.25
2019-03-06T19:28:07.100Z,16.22
2019-03-06T19:30:35.038Z,16.22
2019-03-06T19:35:31.914Z,16.13
2019-03-06T19:38:01.806Z,16.22
2019-03-06T19:40:30.006Z,16.10
2019-03-06T19:42:59.360Z,16.05
2019-03-06T19:45:27.317Z,16.18
2019-03-06T19:47:55.188Z,16.16
2019-03-06T19:50:25.289Z,16.05
2019-03-06T19:52:52.744Z,16.05
2019-03-06T19:55:20.895Z,16.09
2019-03-06T19:57:49.825Z,16.04
2019-03-06T20:00:17.726Z,15.98
2019-03-06T20:02:45.860Z,16.00
2019-03-06T20:05:14.026Z,15.97
2019-03-06T20:07:41.941Z,15.99
2019-03-06T20:10:09.725Z,15.94
2019-03-06T20:12:37.854Z,15.96
2019-03-06T20:15:05.805Z,15.97
2019-03-06T20:17:33.644Z,15.96
2019-03-06T20:20:01.525Z,15.92
2019-03-06T20:22:29.414Z,15.95
2019-03-06T20:24:57.301Z,15.92
2019-03-06T20:27:25.561Z,15.91
2019-03-06T20:29:53.569Z,15.97
2019-03-06T20:32:21.402Z,15.90
2019-03-06T20:34:49.412Z,15.96
2019-03-06T20:37:17.274Z,15.96
2019-03-06T20:39:45.179Z,15.99
2019-03-06T20:42:13.075Z,15.97
2019-03-06T20:44:41.952Z,15.93
2019-03-06T20:47:10.145Z,15.90
2019-03-06T20:49:37.996Z,15.93
2019-03-06T20:52:05.782Z,15.93
2019-03-06T20:54:33.651Z,15.92
2019-03-06T20:57:01.493Z,15.90
2019-03-06T20:59:29.369Z,15.95
2019-03-06T21:01:57.219Z,15.91
2019-03-06T21:04:25.044Z,15.82
2019-03-06T21:06:52.981Z,15.91
2019-03-06T21:09:20.855Z,15.86
2019-03-06T21:11:48.849Z,15.91
2019-03-06T21:14:16.770Z,15.84
2019-03-06T21:16:45.096Z,15.88
2019-03-06T21:19:12.968Z,15.87
2019-03-06T21:21:40.852Z,15.86
2019-03-06T21:24:09.050Z,15.90
2019-03-06T21:26:37.020Z,15.91
2019-03-06T21:29:05.164Z,15.83
2019-03-06T21:31:33.023Z,15.87
2019-03-06T21:34:00.877Z,15.89
2019-03-06T21:36:28.697Z,15.85
2019-03-06T21:38:56.553Z,15.91
2019-03-06T21:41:24.386Z,15.86
2019-03-06T21:43:52.254Z,15.89
2019-03-06T21:46:20.604Z,15.83
2019-03-06T21:48:48.495Z,15.71
2019-03-06T21:51:16.487Z,15.87
2019-03-06T21:53:44.417Z,15.86
2019-03-06T21:56:12.288Z,15.92
2019-03-06T21:58:40.126Z,15.85
2019-03-06T22:01:07.955Z,15.87
2019-03-06T22:03:35.814Z,15.91
2019-03-06T22:06:03.718Z,15.87
2019-03-06T22:08:31.646Z,15.85
2019-03-06T22:10:59.428Z,15.86
2019-03-06T22:13:27.312Z,15.87
2019-03-06T22:15:55.191Z,15.79
2019-03-06T22:18:23.787Z,15.90
2019-03-06T22:20:51.554Z,15.87
2019-03-06T22:23:19.480Z,15.91
2019-03-06T22:25:47.348Z,15.89
2019-03-06T22:28:15.392Z,15.83
2019-03-06T22:30:43.508Z,15.88
2019-03-06T22:33:11.286Z,15.85
2019-03-06T22:35:39.704Z,15.88
2019-03-06T22:38:07.685Z,15.93
2019-03-06T22:40:35.520Z,15.87
2019-03-06T22:43:03.373Z,15.90
2019-03-06T22:45:31.502Z,15.84
2019-03-06T22:47:59.463Z,15.84
2019-03-06T22:50:27.380Z,15.83
2019-03-06T22:52:55.238Z,15.88
2019-03-06T22:55:25.901Z,15.92
2019-03-06T22:57:53.777Z,15.88
2019-03-06T23:00:43.117Z,15.92
2019-03-06T23:03:11.079Z,15.86
2019-03-06T23:05:38.908Z,15.86
2019-03-06T23:08:07.057Z,15.85
2019-03-06T23:10:34.944Z,15.85
2019-03-06T23:13:04.910Z,15.84
2019-03-06T23:15:32.811Z,15.86
2019-03-06T23:18:00.759Z,15.79
2019-03-06T23:20:28.570Z,15.81
2019-03-06T23:22:56.431Z,15.81
2019-03-06T23:25:24.298Z,15.84
2019-03-06T23:27:52.169Z,15.89
2019-03-06T23:30:20.170Z,15.83
2019-03-06T23:32:48.390Z,15.82
2019-03-06T23:35:16.227Z,15.87
2019-03-06T23:37:44.250Z,15.84
2019-03-06T23:40:12.228Z,15.83
2019-03-06T23:42:40.116Z,15.83
2019-03-06T23:45:08.041Z,15.86
2019-03-06T23:47:36.059Z,15.85
2019-03-06T23:50:04.369Z,15.87
2019-03-06T23:52:54.962Z,15.84
2019-03-06T23:55:23.842Z,15.87
2019-03-06T23:57:51.719Z,15.85
